Time;durP1;ratioP1;P1;durP2;ratioP2;P2;SDS_P1;SDS_P2;PMS_P1;PMS_P2;Temp;Humidity;BMP_temperature;BMP_pressure;BME280_temperature;BME280_humidity;BME280_pressure;Samples;Min_cycle;Max_cycle;Signal;HPM_P1;HPM_P2
2022/06/24 00:00:05;;;;;;;2.97;2.10;;;23.60;95.60;;;;;;5052033;28;20044;-71
2022/06/24 00:02:32;;;;;;;5.45;2.10;;;23.40;95.70;;;;;;5052146;28;20088;-72
2022/06/24 00:05:01;;;;;;;6.18;2.13;;;23.30;95.60;;;;;;5053513;28;20391;-72
2022/06/24 00:07:27;;;;;;;4.80;2.30;;;23.40;95.40;;;;;;5069038;28;20123;-71
2022/06/24 00:09:52;;;;;;;4.10;2.05;;;23.30;95.50;;;;;;5052828;28;20053;-71
2022/06/24 00:12:23;;;;;;;3.33;1.98;;;23.20;95.50;;;;;;5052683;28;20041;-72
2022/06/24 00:14:58;;;;;;;3.00;1.95;;;23.10;95.50;;;;;;5051743;28;20400;-72
2022/06/24 00:17:28;;;;;;;7.10;2.47;;;23.00;95.60;;;;;;5052960;28;20114;-72
2022/06/24 00:20:02;;;;;;;4.30;2.10;;;22.90;95.80;;;;;;5052953;28;20049;-71
2022/06/24 00:22:30;;;;;;;3.00;1.77;;;22.90;95.70;;;;;;5068611;28;20048;-71
2022/06/24 00:25:15;;;;;;;3.88;2.03;;;22.80;95.80;;;;;;5068956;28;20159;-72
2022/06/24 00:27:42;;;;;;;2.55;2.08;;;22.70;95.90;;;;;;5053317;28;20448;-71
2022/06/24 00:30:09;;;;;;;4.68;2.33;;;22.60;96.10;;;;;;5056394;28;20045;-72
2022/06/24 00:32:35;;;;;;;4.28;1.88;;;22.70;96.00;;;;;;5056179;28;20079;-71
2022/06/24 00:35:02;;;;;;;6.03;2.10;;;22.60;95.90;;;;;;5071925;28;20109;-72
2022/06/24 00:37:29;;;;;;;2.20;2.00;;;22.60;96.00;;;;;;5056416;28;20045;-72
2022/06/24 00:40:18;;;;;;;3.80;2.22;;;22.40;96.00;;;;;;5056334;28;20049;-71
2022/06/24 00:42:45;;;;;;;9.27;2.65;;;22.30;96.10;;;;;;5056315;28;20549;-71
2022/06/24 00:45:40;;;;;;;3.50;2.22;;;22.20;96.30;;;;;;5056122;28;20397;-71
2022/06/24 00:48:14;;;;;;;5.22;2.20;;;22.20;96.30;;;;;;5055900;28;20088;-72
2022/06/24 00:50:44;;;;;;;6.35;2.30;;;22.20;96.30;;;;;;5071948;28;20049;-71
2022/06/24 00:53:10;;;;;;;2.72;2.17;;;22.10;96.40;;;;;;5071608;28;20045;-72
2022/06/24 00:55:37;;;;;;;2.97;2.30;;;22.00;96.60;;;;;;5056089;28;20084;-71
2022/06/24 00:58:04;;;;;;;3.55;2.30;;;22.00;96.70;;;;;;5055657;28;20049;-72
2022/06/24 01:00:33;;;;;;;3.17;2.30;;;21.90;96.60;;;;;;5055974;28;20557;-71
2022/06/24 01:03:04;;;;;;;4.40;2.38;;;21.90;96.70;;;;;;5055882;28;20047;-71
2022/06/24 01:05:32;;;;;;;5.80;2.42;;;21.80;96.60;;;;;;5071893;28;20144;-71
2022/06/24 01:08:04;;;;;;;4.70;2.53;;;21.80;96.80;;;;;;5054952;28;20053;-71
2022/06/24 01:10:30;;;;;;;2.35;2.13;;;21.80;96.90;;;;;;5055707;28;20055;-72
2022/06/24 01:12:56;;;;;;;5.88;2.40;;;21.70;96.90;;;;;;5071280;28;20433;-71
2022/06/24 01:15:22;;;;;;;3.20;2.20;;;21.70;96.90;;;;;;5071453;28;20044;-72
2022/06/24 01:17:47;;;;;;;3.80;2.28;;;21.60;97.10;;;;;;5071379;28;20114;-72
2022/06/24 01:20:13;;;;;;;4.70;2.20;;;21.60;97.20;;;;;;5071456;28;20107;-71
2022/06/24 01:22:40;;;;;;;5.13;2.35;;;21.60;97.10;;;;;;5054440;28;20491;-71
2022/06/24 01:25:07;;;;;;;6.15;2.38;;;21.60;97.20;;;;;;5071106;28;20499;-72
2022/06/24 01:27:33;;;;;;;2.58;2.38;;;21.60;97.20;;;;;;5055513;28;20082;-71
2022/06/24 01:29:59;;;;;;;4.60;2.38;;;21.60;97.30;;;;;;5055469;28;20497;-72
2022/06/24 01:32:25;;;;;;;7.13;2.60;;;21.50;97.30;;;;;;5053564;28;20500;-71
2022/06/24 01:34:50;;;;;;;2.72;2.35;;;21.50;97.40;;;;;;5071085;28;20060;-71
2022/06/24 01:37:16;;;;;;;5.30;2.80;;;21.40;97.40;;;;;;5070817;28;20084;-72
2022/06/24 01:39:42;;;;;;;4.45;2.63;;;21.50;97.40;;;;;;5070370;28;20125;-72
2022/06/24 01:42:08;;;;;;;4.53;2.30;;;21.50;97.40;;;;;;5054817;28;20047;-71
2022/06/24 01:44:34;;;;;;;6.25;2.55;;;21.40;97.50;;;;;;5070765;28;20052;-72
2022/06/24 01:47:01;;;;;;;3.17;2.17;;;21.40;97.50;;;;;;5055210;28;20048;-72
2022/06/24 01:49:26;;;;;;;6.20;2.45;;;21.30;97.50;;;;;;5070388;28;20496;-72
2022/06/24 01:51:55;;;;;;;4.57;2.50;;;21.20;97.50;;;;;;5055093;28;20077;-72
2022/06/24 01:54:21;;;;;;;4.10;2.63;;;21.10;97.50;;;;;;5037357;28;20454;-72
2022/06/24 01:56:47;;;;;;;4.20;2.60;;;21.20;97.60;;;;;;5070699;28;20083;-71
2022/06/24 01:59:14;;;;;;;2.90;2.45;;;21.20;97.70;;;;;;5070338;28;20045;-71
2022/06/24 02:01:43;;;;;;;5.50;2.63;;;21.20;97.60;;;;;;5054786;28;20033;-72
2022/06/24 02:04:10;;;;;;;5.43;2.50;;;21.10;97.60;;;;;;5054199;28;20045;-72
2022/06/24 02:06:35;;;;;;;4.50;2.38;;;21.10;97.60;;;;;;5070544;28;20053;-71
2022/06/24 02:09:01;;;;;;;6.85;2.95;;;21.00;97.60;;;;;;5054485;28;20107;-72
2022/06/24 02:14:13;;;;;;;3.08;2.78;;;20.90;98.00;;;;;;5054242;28;20075;-72
2022/06/24 02:16:39;;;;;;;4.05;2.50;;;20.80;98.10;;;;;;5054404;28;20049;-72
2022/06/24 02:19:06;;;;;;;4.43;2.55;;;20.80;98.10;;;;;;5070427;28;20496;-71
2022/06/24 02:21:32;;;;;;;4.40;2.80;;;20.70;98.10;;;;;;5054118;28;20563;-72
2022/06/24 02:23:57;;;;;;;3.65;2.45;;;20.90;98.10;;;;;;5070252;28;20136;-72
2022/06/24 02:26:25;;;;;;;4.30;2.95;;;20.80;98.10;;;;;;5070000;28;20041;-71
2022/06/24 02:28:51;;;;;;;3.92;2.75;;;20.70;98.10;;;;;;5070023;28;20519;-72
2022/06/24 02:31:17;;;;;;;4.85;3.13;;;20.60;98.20;;;;;;5052924;28;20103;-72
2022/06/24 02:33:43;;;;;;;3.40;3.00;;;20.70;98.30;;;;;;5068954;28;20132;-72
2022/06/24 02:36:09;;;;;;;4.93;3.10;;;20.60;98.30;;;;;;5053891;28;20508;-72
2022/06/24 02:38:35;;;;;;;4.13;3.10;;;20.60;98.50;;;;;;5054044;28;20066;-72
2022/06/24 02:41:01;;;;;;;5.00;3.22;;;20.60;98.40;;;;;;5054284;28;20056;-71
2022/06/24 02:43:32;;;;;;;4.35;3.13;;;20.70;98.50;;;;;;5053274;28;20396;-71
2022/06/24 02:46:09;;;;;;;4.88;3.35;;;20.70;98.30;;;;;;5069771;28;20159;-72
2022/06/24 02:48:37;;;;;;;5.68;3.08;;;20.80;98.30;;;;;;5053673;28;20055;-71
2022/06/24 02:51:11;;;;;;;3.17;2.70;;;20.80;98.30;;;;;;5069166;28;20391;-72
2022/06/24 02:53:37;;;;;;;4.40;3.05;;;20.90;98.30;;;;;;5053133;28;20061;-71
2022/06/24 02:56:08;;;;;;;5.00;3.20;;;20.90;98.20;;;;;;5053708;28;20072;-71
2022/06/24 02:58:34;;;;;;;6.18;2.90;;;20.90;98.10;;;;;;5052786;28;20084;-71
2022/06/24 03:01:01;;;;;;;4.13;3.10;;;20.90;98.10;;;;;;5053579;28;20128;-73
2022/06/24 03:03:28;;;;;;;5.57;3.00;;;21.00;98.10;;;;;;5053337;28;20128;-71
2022/06/24 03:05:54;;;;;;;5.55;3.10;;;21.00;98.10;;;;;;5053400;28;20427;-71
2022/06/24 03:08:21;;;;;;;4.95;2.78;;;21.00;98.20;;;;;;5069411;28;20045;-72
2022/06/24 03:10:48;;;;;;;5.78;2.70;;;21.00;98.10;;;;;;5053611;28;20412;-72
2022/06/24 03:13:15;;;;;;;4.68;3.05;;;21.00;98.30;;;;;;5068794;28;20052;-72
2022/06/24 03:15:41;;;;;;;3.95;2.90;;;20.90;98.30;;;;;;5053585;28;20395;-72
2022/06/24 03:18:07;;;;;;;3.60;3.00;;;20.90;98.40;;;;;;5069163;28;20044;-72
2022/06/24 03:20:33;;;;;;;7.65;3.17;;;20.80;98.20;;;;;;5069272;28;20373;-71
2022/06/24 03:22:58;;;;;;;3.30;2.80;;;20.80;98.30;;;;;;5053720;28;20087;-71
2022/06/24 03:25:24;;;;;;;4.30;2.95;;;20.80;98.30;;;;;;5069418;28;20076;-72
2022/06/24 03:27:50;;;;;;;4.40;3.10;;;20.80;98.60;;;;;;5053301;28;20509;-71
2022/06/24 03:30:16;;;;;;;5.82;3.20;;;20.80;98.60;;;;;;5053130;28;20129;-72
2022/06/24 03:32:42;;;;;;;7.57;3.72;;;20.90;98.60;;;;;;5052869;28;20060;-71
2022/06/24 03:35:08;;;;;;;4.32;3.35;;;21.00;98.90;;;;;;5068831;28;20136;-72
2022/06/24 03:37:35;;;;;;;5.30;3.40;;;21.10;98.70;;;;;;5053749;28;20041;-71
2022/06/24 03:40:02;;;;;;;6.88;4.57;;;21.10;98.80;;;;;;5053076;28;20045;-71
2022/06/24 03:42:28;;;;;;;6.75;3.78;;;21.20;98.60;;;;;;5069153;28;20070;-71
2022/06/24 03:44:54;;;;;;;5.63;2.88;;;21.20;99.20;;;;;;5068733;28;20048;-72
2022/06/24 03:47:20;;;;;;;5.90;3.70;;;21.20;99.40;;;;;;5053216;28;20510;-72
2022/06/24 03:49:46;;;;;;;4.10;3.22;;;21.20;98.60;;;;;;5053322;28;20049;-71
2022/06/24 03:52:12;;;;;;;4.05;3.53;;;21.30;98.90;;;;;;5068716;28;20045;-71
2022/06/24 03:54:38;;;;;;;7.00;2.95;;;21.30;98.80;;;;;;5053223;28;20049;-71
2022/06/24 03:57:05;;;;;;;5.93;4.00;;;21.40;98.80;;;;;;5068845;28;20045;-71
2022/06/24 03:59:31;;;;;;;5.00;3.35;;;21.40;98.60;;;;;;5068859;28;20124;-71
2022/06/24 04:01:59;;;;;;;5.30;3.85;;;21.40;98.90;;;;;;5055370;28;20041;-71
2022/06/24 04:04:25;;;;;;;4.97;3.47;;;21.50;98.40;;;;;;5072332;28;20476;-71
2022/06/24 04:06:51;;;;;;;5.60;3.33;;;21.40;98.20;;;;;;5056903;28;20110;-72
2022/06/24 04:09:17;;;;;;;5.78;3.85;;;21.50;98.70;;;;;;5056942;28;20049;-71
2022/06/24 04:11:43;;;;;;;9.95;3.70;;;21.50;98.50;;;;;;5056769;28;20052;-71
2022/06/24 04:14:08;;;;;;;8.13;4.22;;;21.40;98.50;;;;;;5072410;28;20056;-72
2022/06/24 04:16:34;;;;;;;9.88;3.97;;;21.50;98.30;;;;;;5072582;28;20045;-71
2022/06/24 04:19:00;;;;;;;6.93;3.50;;;21.70;98.30;;;;;;5056928;28;20045;-71
2022/06/24 04:21:27;;;;;;;8.88;3.92;;;21.70;98.10;;;;;;5072508;28;20388;-72
2022/06/24 04:23:52;;;;;;;7.03;3.65;;;21.80;98.40;;;;;;5056491;28;20060;-71
2022/06/24 04:26:19;;;;;;;6.35;3.75;;;21.90;98.50;;;;;;5056613;28;20048;-72
2022/06/24 04:28:46;;;;;;;6.05;3.63;;;21.90;98.60;;;;;;5072029;28;20146;-71
2022/06/24 04:31:13;;;;;;;4.45;3.25;;;22.00;98.20;;;;;;5056452;28;20048;-71
2022/06/24 04:33:39;;;;;;;7.05;3.33;;;22.10;98.10;;;;;;5056404;28;20061;-71
2022/06/24 04:36:14;;;;;;;6.88;3.00;;;22.10;98.90;;;;;;5055218;28;20098;-71
2022/06/24 04:38:44;;;;;;;7.30;3.78;;;22.20;98.90;;;;;;5072044;28;20053;-71
2022/06/24 04:41:14;;;;;;;6.15;3.60;;;22.20;98.60;;;;;;5056115;28;20446;-72
2022/06/24 04:43:40;;;;;;;9.27;3.75;;;22.30;98.80;;;;;;5072174;28;20089;-72
2022/06/24 04:46:06;;;;;;;5.78;3.40;;;22.40;98.50;;;;;;5072118;28;20080;-71
2022/06/24 04:48:33;;;;;;;6.53;3.65;;;22.40;98.60;;;;;;5055580;28;20136;-71
2022/06/24 04:50:58;;;;;;;7.90;3.20;;;22.50;98.90;;;;;;5056081;28;20081;-71
2022/06/24 04:53:24;;;;;;;5.88;3.90;;;22.70;98.50;;;;;;5071556;28;20076;-71
2022/06/24 04:55:50;;;;;;;5.95;3.58;;;22.70;97.70;;;;;;5056147;28;20060;-71
2022/06/24 04:58:15;;;;;;;4.55;3.30;;;22.80;98.30;;;;;;5071940;28;20457;-72
2022/06/24 05:00:41;;;;;;;8.45;3.70;;;22.90;99.20;;;;;;5056033;28;20037;-71
2022/06/24 05:03:07;;;;;;;6.30;3.33;;;22.90;99.10;;;;;;5055451;28;20524;-71
2022/06/24 05:05:32;;;;;;;5.75;3.75;;;22.90;99.50;;;;;;5055932;28;20132;-71
2022/06/24 05:07:58;;;;;;;10.15;3.78;;;22.90;99.30;;;;;;5071173;28;20041;-72
2022/06/24 05:10:24;;;;;;;4.95;3.10;;;23.00;99.20;;;;;;5055648;28;20049;-72
2022/06/24 05:12:49;;;;;;;7.85;3.67;;;23.10;99.20;;;;;;5070696;28;20091;-72
2022/06/24 05:15:15;;;;;;;6.57;3.40;;;23.20;98.80;;;;;;5071392;28;20370;-72
2022/06/24 05:17:41;;;;;;;4.95;3.28;;;23.20;98.50;;;;;;5071540;28;20055;-72
2022/06/24 05:20:08;;;;;;;3.53;2.90;;;23.30;98.90;;;;;;5071181;28;20496;-72
2022/06/24 05:22:33;;;;;;;5.85;3.25;;;23.20;99.20;;;;;;5055525;28;20377;-72
2022/06/24 05:24:59;;;;;;;6.05;3.60;;;23.20;98.40;;;;;;5055276;28;20051;-72
2022/06/24 05:27:25;;;;;;;5.32;3.20;;;23.20;98.70;;;;;;5054377;28;20127;-72
2022/06/24 05:29:50;;;;;;;10.25;4.35;;;23.20;98.50;;;;;;5055641;28;20618;-72
2022/06/24 05:32:16;;;;;;;6.47;4.20;;;23.20;98.30;;;;;;5054917;28;20384;-80
2022/06/24 05:34:42;;;;;;;6.57;3.70;;;23.20;98.00;;;;;;5071281;28;20045;-71
2022/06/24 05:37:07;;;;;;;7.22;4.60;;;23.30;98.30;;;;;;5070634;28;20135;-72
2022/06/24 05:39:33;;;;;;;6.28;3.67;;;23.30;98.20;;;;;;5054469;28;20130;-71
2022/06/24 05:41:59;;;;;;;5.18;3.38;;;23.50;98.30;;;;;;5055004;28;20563;-71
2022/06/24 05:44:24;;;;;;;5.25;3.30;;;23.60;98.80;;;;;;5055258;28;20045;-72
2022/06/24 05:46:51;;;;;;;5.95;3.75;;;23.70;98.80;;;;;;5070541;28;20052;-71
2022/06/24 05:49:17;;;;;;;7.13;4.20;;;23.80;98.60;;;;;;5055073;28;20069;-71
2022/06/24 05:51:43;;;;;;;6.97;4.80;;;23.60;98.50;;;;;;5055124;28;20052;-71
2022/06/24 05:56:53;;;;;;;11.48;5.60;;;23.20;99.10;;;;;;5055137;28;20140;-71
2022/06/24 05:59:18;;;;;;;9.75;5.90;;;23.30;99.10;;;;;;5053742;28;20084;-71
2022/06/24 06:01:44;;;;;;;10.85;5.07;;;23.30;99.00;;;;;;5070650;28;20041;-71
2022/06/24 06:04:10;;;;;;;9.20;5.30;;;23.20;99.60;;;;;;5054182;28;20049;-71
2022/06/24 06:06:36;;;;;;;9.80;5.70;;;23.20;99.80;;;;;;5054565;28;20095;-72
2022/06/24 06:09:02;;;;;;;10.60;5.20;;;23.20;99.90;;;;;;5053598;28;20106;-71
2022/06/24 06:11:28;;;;;;;6.35;5.72;;;23.10;99.90;;;;;;5054486;28;20103;-71
2022/06/24 06:13:56;;;;;;;10.02;7.45;;;22.90;99.90;;;;;;5054728;28;20107;-71
2022/06/24 06:16:22;;;;;;;12.65;7.07;;;22.60;99.90;;;;;;5070117;28;20460;-71
2022/06/24 06:18:48;;;;;;;19.90;9.27;;;22.50;99.90;;;;;;5053273;28;20106;-71
2022/06/24 06:21:15;;;;;;;30.17;10.40;;;22.60;99.90;;;;;;5069875;28;20049;-72
2022/06/24 06:23:42;;;;;;;15.25;11.63;;;22.70;99.90;;;;;;5069823;28;20053;-71
2022/06/24 06:26:09;;;;;;;16.67;9.70;;;22.60;99.90;;;;;;5052666;28;20510;-71
2022/06/24 06:28:35;;;;;;;17.80;11.00;;;22.30;99.90;;;;;;5069949;28;20088;-71
2022/06/24 06:31:01;;;;;;;16.23;10.60;;;22.40;99.90;;;;;;5054387;28;20044;-72
2022/06/24 06:33:27;;;;;;;15.75;9.60;;;22.70;99.90;;;;;;5055397;28;20053;-76
2022/06/24 06:36:01;;;;;;;14.13;10.77;;;22.70;99.90;;;;;;5069639;28;20514;-72
2022/06/24 06:38:27;;;;;;;17.10;10.57;;;22.70;99.90;;;;;;5054222;28;20052;-71
2022/06/24 06:40:53;;;;;;;17.38;10.10;;;22.50;99.90;;;;;;5053906;28;20499;-73
2022/06/24 06:43:19;;;;;;;14.05;9.98;;;22.60;99.90;;;;;;5053035;28;20052;-71
2022/06/24 06:45:44;;;;;;;15.02;9.90;;;22.60;99.90;;;;;;5069545;28;20115;-71
2022/06/24 06:48:10;;;;;;;15.90;10.63;;;22.50;99.90;;;;;;5054080;28;20044;-72
2022/06/24 06:50:35;;;;;;;17.00;10.55;;;22.70;99.90;;;;;;5053795;28;20047;-73
2022/06/24 06:53:02;;;;;;;20.83;13.20;;;22.70;99.90;;;;;;5036349;28;20045;-73
2022/06/24 06:55:27;;;;;;;16.98;11.10;;;22.80;99.90;;;;;;5053786;28;20064;-72
2022/06/24 06:57:53;;;;;;;17.73;11.30;;;22.80;99.90;;;;;;5036716;28;20122;-73
2022/06/24 07:00:20;;;;;;;18.85;11.70;;;22.90;99.90;;;;;;5053666;28;20048;-73
2022/06/24 07:02:46;;;;;;;16.52;12.13;;;22.50;99.90;;;;;;5053152;28;20045;-73
2022/06/24 07:05:12;;;;;;;13.95;11.30;;;22.40;99.90;;;;;;5068996;28;20377;-73
2022/06/24 07:07:37;;;;;;;19.60;12.38;;;22.60;99.90;;;;;;5053379;28;20122;-73
2022/06/24 07:10:03;;;;;;;17.65;12.48;;;22.70;99.90;;;;;;5053891;28;20080;-75
2022/06/24 07:12:29;;;;;;;20.58;13.20;;;22.60;99.90;;;;;;5056644;28;20041;-73
2022/06/24 07:14:55;;;;;;;18.10;14.30;;;22.70;99.90;;;;;;5053388;28;20496;-72
2022/06/24 07:17:21;;;;;;;23.85;15.73;;;22.70;99.90;;;;;;5053384;28;20052;-71
2022/06/24 07:19:47;;;;;;;23.13;15.00;;;22.70;99.90;;;;;;5053392;28;20045;-71
2022/06/24 07:22:14;;;;;;;20.63;13.52;;;22.50;99.90;;;;;;5053452;28;20055;-71
2022/06/24 07:24:40;;;;;;;18.67;12.13;;;22.50;99.90;;;;;;5052551;28;20491;-71
2022/06/24 07:27:07;;;;;;;19.50;13.50;;;22.50;99.90;;;;;;5053585;28;20045;-72
2022/06/24 07:29:34;;;;;;;22.80;12.85;;;22.40;99.90;;;;;;5052555;28;20075;-71
2022/06/24 07:32:03;;;;;;;18.33;12.75;;;22.40;99.90;;;;;;5052451;28;20036;-71
2022/06/24 07:34:32;;;;;;;24.80;16.65;;;22.40;99.90;;;;;;5051776;28;20065;-71
2022/06/24 07:37:02;;;;;;;26.98;17.40;;;22.50;99.90;;;;;;5058000;28;20483;-71
2022/06/24 07:39:28;;;;;;;16.20;13.70;;;22.30;99.90;;;;;;5059927;28;20131;-71
2022/06/24 07:41:54;;;;;;;20.45;14.55;;;22.00;99.90;;;;;;5059874;28;20084;-71
2022/06/24 07:44:23;;;;;;;19.90;14.23;;;22.10;99.90;;;;;;5058831;28;20083;-71
2022/06/24 07:46:50;;;;;;;21.55;13.93;;;22.30;99.90;;;;;;5059726;28;20045;-71
2022/06/24 07:49:16;;;;;;;18.55;12.43;;;22.40;99.90;;;;;;5060006;28;20052;-71
2022/06/24 07:51:42;;;;;;;15.73;9.15;;;22.50;99.90;;;;;;5058758;28;20045;-70
2022/06/24 07:54:08;;;;;;;14.98;8.95;;;22.50;99.90;;;;;;5059925;28;20107;-72
2022/06/24 07:59:26;;;;;;;15.60;9.15;;;22.50;99.90;;;;;;5059677;28;20059;-72
2022/06/24 08:01:54;;;;;;;18.70;9.77;;;22.70;99.90;;;;;;5060160;28;20115;-72
2022/06/24 08:04:21;;;;;;;11.68;7.20;;;22.50;99.90;;;;;;5059236;28;20508;-72
2022/06/24 08:06:49;;;;;;;13.02;7.43;;;22.50;99.90;;;;;;5059836;28;20052;-72
2022/06/24 08:09:16;;;;;;;15.82;9.10;;;22.50;99.90;;;;;;5059715;28;20082;-72
2022/06/24 08:11:42;;;;;;;17.00;9.82;;;22.70;99.90;;;;;;5059450;28;20032;-72
2022/06/24 08:14:08;;;;;;;16.35;11.07;;;22.70;99.90;;;;;;5059911;28;20514;-73
2022/06/24 08:16:34;;;;;;;13.65;9.68;;;22.70;99.90;;;;;;5059705;28;20052;-73
2022/06/24 08:19:00;;;;;;;13.43;8.05;;;22.60;99.90;;;;;;5059717;28;20044;-72
2022/06/24 08:21:25;;;;;;;10.93;7.72;;;22.70;99.90;;;;;;5059621;28;20052;-85
2022/06/24 08:23:51;;;;;;;8.10;5.65;;;22.70;99.90;;;;;;5058679;28;20141;-85
2022/06/24 08:26:17;;;;;;;9.55;7.00;;;22.60;99.90;;;;;;5075108;28;20499;-85
2022/06/24 08:28:44;;;;;;;8.63;5.82;;;22.20;99.90;;;;;;5075004;28;20055;-74
2022/06/24 08:31:10;;;;;;;9.20;6.40;;;22.00;99.90;;;;;;5075188;28;20049;-71
2022/06/24 08:33:36;;;;;;;9.25;6.78;;;22.30;99.90;;;;;;5058925;28;20505;-73
2022/06/24 08:36:02;;;;;;;12.25;8.30;;;22.60;99.90;;;;;;5059331;28;20052;-71
2022/06/24 08:38:28;;;;;;;18.58;9.30;;;22.70;99.90;;;;;;5075043;28;20125;-71
2022/06/24 08:40:54;;;;;;;13.93;8.95;;;22.80;99.90;;;;;;5059240;28;20484;-72
2022/06/24 08:43:23;;;;;;;12.40;9.00;;;22.70;99.90;;;;;;5059299;28;20048;-77
2022/06/24 08:45:49;;;;;;;13.18;8.32;;;22.80;99.90;;;;;;5075071;28;20404;-72
2022/06/24 08:48:16;;;;;;;9.43;7.78;;;22.70;99.90;;;;;;5056410;28;20115;-72
2022/06/24 08:50:42;;;;;;;10.82;7.93;;;22.70;99.90;;;;;;5056166;28;20124;-72
2022/06/24 08:53:10;;;;;;;9.70;7.10;;;22.90;99.90;;;;;;5055810;28;20510;-72
2022/06/24 08:55:37;;;;;;;12.02;7.10;;;22.90;99.90;;;;;;5055855;28;20045;-72
2022/06/24 08:58:11;;;;;;;13.88;7.53;;;22.80;99.90;;;;;;5055915;28;20048;-73
2022/06/24 09:00:39;;;;;;;9.93;7.60;;;22.90;99.90;;;;;;5055141;28;20396;-73
2022/06/24 09:03:06;;;;;;;8.20;6.93;;;23.10;99.90;;;;;;5071326;28;20052;-73
2022/06/24 09:05:32;;;;;;;9.45;6.85;;;23.30;99.90;;;;;;5055760;28;20385;-72
2022/06/24 09:08:09;;;;;;;10.30;6.55;;;23.20;99.90;;;;;;5055042;28;20064;-72
2022/06/24 09:10:38;;;;;;;13.07;6.43;;;23.10;99.90;;;;;;5071656;28;20041;-71
2022/06/24 09:13:05;;;;;;;13.98;8.15;;;23.20;99.90;;;;;;5071212;28;20080;-72
2022/06/24 09:15:32;;;;;;;9.98;6.63;;;23.00;99.90;;;;;;5071425;28;20060;-71
2022/06/24 09:17:59;;;;;;;10.10;6.80;;;22.90;99.90;;;;;;5056097;28;20106;-72
2022/06/24 09:20:30;;;;;;;8.82;6.70;;;22.90;99.90;;;;;;5056339;28;20103;-74
2022/06/24 09:23:07;;;;;;;10.10;6.03;;;22.90;99.90;;;;;;5071461;28;20048;-72
2022/06/24 09:25:51;;;;;;;9.95;6.75;;;22.90;99.90;;;;;;5055806;28;20048;-71
2022/06/24 09:28:23;;;;;;;11.65;9.20;;;22.90;99.90;;;;;;5055366;28;20060;-72
2022/06/24 09:30:50;;;;;;;8.38;6.60;;;23.00;99.90;;;;;;5054290;28;20045;-71
2022/06/24 09:33:18;;;;;;;10.73;7.50;;;22.90;99.90;;;;;;5055026;28;20057;-73
2022/06/24 09:35:44;;;;;;;10.35;6.97;;;22.90;99.90;;;;;;5054117;28;20057;-73
2022/06/24 09:38:11;;;;;;;6.53;5.75;;;23.00;99.90;;;;;;5055476;28;20037;-73
2022/06/24 09:40:39;;;;;;;9.48;5.50;;;23.00;99.90;;;;;;5055173;28;20045;-73
2022/06/24 09:43:06;;;;;;;8.88;5.65;;;22.90;99.90;;;;;;5055461;28;20153;-73
2022/06/24 09:45:52;;;;;;;9.63;5.90;;;22.80;99.90;;;;;;5055329;28;20049;-74
2022/06/24 09:48:30;;;;;;;11.75;5.93;;;22.90;99.90;;;;;;5053809;28;20061;-73
2022/06/24 09:50:58;;;;;;;9.27;7.00;;;23.00;99.90;;;;;;5055333;28;20074;-72
2022/06/24 09:53:25;;;;;;;8.63;6.80;;;23.10;99.90;;;;;;5054976;28;20056;-72
2022/06/24 09:55:54;;;;;;;13.68;6.82;;;23.10;99.90;;;;;;5054988;28;20056;-72
2022/06/24 09:58:21;;;;;;;10.07;7.20;;;23.00;99.90;;;;;;5053916;28;20457;-73
2022/06/24 10:00:50;;;;;;;9.68;8.05;;;22.90;99.90;;;;;;5054894;28;20088;-73
2022/06/24 10:03:17;;;;;;;11.07;7.70;;;23.00;99.90;;;;;;5054573;28;20045;-73
2022/06/24 10:05:45;;;;;;;11.60;8.32;;;22.90;99.90;;;;;;5054808;28;20048;-73
2022/06/24 10:08:33;;;;;;;11.07;7.18;;;22.80;99.90;;;;;;5054641;28;20044;-73
2022/06/24 10:11:00;;;;;;;9.75;7.32;;;22.70;99.90;;;;;;5070535;28;20552;-73
2022/06/24 10:13:26;;;;;;;11.20;7.90;;;22.70;99.90;;;;;;5054675;28;20041;-73
2022/06/24 10:15:57;;;;;;;14.38;8.18;;;22.70;99.90;;;;;;5054512;28;20044;-73
2022/06/24 10:18:27;;;;;;;14.25;10.32;;;22.40;99.90;;;;;;5054643;28;20114;-73
2022/06/24 10:20:56;;;;;;;14.50;9.90;;;22.30;99.90;;;;;;5054689;28;20107;-73
2022/06/24 10:23:42;;;;;;;10.40;8.48;;;22.20;99.90;;;;;;5054191;28;20509;-74
2022/06/24 10:26:27;;;;;;;;;;;22.30;99.90;;;;;;5054109;28;20053;-76
2022/06/24 10:29:04;;;;;;;13.98;9.95;;;22.10;99.90;;;;;;5054193;28;19927;-75
2022/06/24 10:31:48;;;;;;;17.85;10.82;;;22.10;99.90;;;;;;5069543;28;20045;-75
2022/06/24 10:34:22;;;;;;;15.38;10.43;;;22.20;99.90;;;;;;5053707;28;20107;-76
2022/06/24 10:36:59;;;;;;;19.45;12.15;;;22.10;99.90;;;;;;5053767;28;20053;-76
2022/06/24 10:39:27;;;;;;;15.48;11.63;;;21.70;99.90;;;;;;5054306;28;20053;-73
2022/06/24 10:42:07;;;;;;;20.70;13.70;;;21.40;99.90;;;;;;5053796;28;20391;-74
2022/06/24 10:44:35;;;;;;;18.50;12.57;;;21.40;99.90;;;;;;5053098;28;20049;-73
2022/06/24 10:47:04;;;;;;;18.30;13.48;;;21.20;99.90;;;;;;5058159;28;20044;-72
2022/06/24 10:49:54;;;;;;;18.40;13.13;;;21.00;99.90;;;;;;5073837;28;20072;-74
2022/06/24 10:52:55;;;;;;;15.88;10.68;;;21.00;99.90;;;;;;5064885;28;20093;-74
2022/06/24 10:55:21;;;;;;;18.48;11.38;;;20.90;99.90;;;;;;5073882;28;20087;-73
2022/06/24 10:57:49;;;;;;;17.58;11.98;;;20.80;99.90;;;;;;5073760;28;20093;-73
2022/06/24 11:00:20;;;;;;;16.63;10.75;;;20.60;99.90;;;;;;5072529;28;20044;-72
2022/06/24 11:02:50;;;;;;;16.27;12.02;;;20.30;99.90;;;;;;5072321;28;20051;-72
2022/06/24 11:05:17;;;;;;;14.75;9.30;;;20.20;99.90;;;;;;5073794;28;20036;-71
2022/06/24 11:07:47;;;;;;;12.85;8.93;;;20.20;99.90;;;;;;5072851;28;20048;-73
2022/06/24 11:10:16;;;;;;;10.30;7.03;;;20.10;99.90;;;;;;5072807;28;20496;-73
2022/06/24 11:12:52;;;;;;;12.52;9.05;;;20.30;99.90;;;;;;5071102;28;20044;-73
2022/06/24 11:15:18;;;;;;;13.15;8.35;;;20.30;99.90;;;;;;5073773;28;20139;-74
2022/06/24 11:17:44;;;;;;;11.75;6.00;;;20.40;99.90;;;;;;5073529;28;20044;-73
2022/06/24 11:20:12;;;;;;;6.47;4.55;;;20.30;99.90;;;;;;5054340;28;20047;-76
2022/06/24 11:22:42;;;;;;;6.70;4.05;;;20.10;99.90;;;;;;5052478;28;20543;-72
2022/06/24 11:25:10;;;;;;;5.88;4.03;;;20.30;99.90;;;;;;5053138;28;20106;-72
2022/06/24 11:27:36;;;;;;;5.28;3.30;;;20.50;99.90;;;;;;5086397;28;20051;-74
2022/06/24 11:30:03;;;;;;;7.30;3.72;;;20.60;99.90;;;;;;5073242;28;20056;-74
2022/06/24 11:32:28;;;;;;;5.57;4.07;;;20.60;99.90;;;;;;5089048;28;20140;-73
2022/06/24 11:34:54;;;;;;;6.70;3.70;;;20.60;99.90;;;;;;5072076;28;20572;-73
2022/06/24 11:37:24;;;;;;;4.78;3.15;;;20.60;99.90;;;;;;5073502;28;20052;-74
2022/06/24 11:39:58;;;;;;;6.97;4.00;;;20.50;99.90;;;;;;5072423;28;20041;-73
2022/06/24 11:42:23;;;;;;;4.45;3.20;;;20.70;99.90;;;;;;5071899;28;20048;-75
2022/06/24 11:44:51;;;;;;;5.88;4.07;;;20.70;99.90;;;;;;5052049;28;20558;-72
2022/06/24 11:47:28;;;;;;;6.22;3.38;;;20.80;99.90;;;;;;5069056;28;20044;-71
2022/06/24 11:49:54;;;;;;;4.15;3.17;;;20.80;99.90;;;;;;5053804;28;20056;-72
2022/06/24 11:52:20;;;;;;;7.22;3.40;;;21.00;99.90;;;;;;5053026;28;20368;-73
2022/06/24 11:54:45;;;;;;;6.38;3.55;;;21.00;99.90;;;;;;5068875;28;20045;-72
2022/06/24 11:57:12;;;;;;;6.13;3.60;;;21.10;99.90;;;;;;5052680;28;20554;-72
2022/06/24 11:59:38;;;;;;;7.95;3.55;;;21.30;99.90;;;;;;5072306;28;20059;-72
2022/06/24 12:02:08;;;;;;;5.38;3.50;;;21.30;99.90;;;;;;5073027;28;20044;-76
2022/06/24 12:04:34;;;;;;;6.35;3.03;;;21.20;99.90;;;;;;5051319;28;20162;-72
2022/06/24 12:07:03;;;;;;;6.10;4.55;;;21.20;99.90;;;;;;5059416;28;20048;-72
2022/06/24 12:09:29;;;;;;;3.70;2.40;;;21.10;99.90;;;;;;5072988;28;20110;-73
2022/06/24 12:12:06;;;;;;;3.72;2.60;;;21.20;99.90;;;;;;5068976;28;20048;-71
2022/06/24 12:14:33;;;;;;;7.38;3.17;;;21.40;99.90;;;;;;5068447;28;20056;-72
2022/06/24 12:17:03;;;;;;;5.28;3.75;;;21.60;99.90;;;;;;5071068;28;20076;-72
2022/06/24 12:19:40;;;;;;;7.18;3.92;;;21.80;99.90;;;;;;5071731;28;20048;-72
2022/06/24 12:22:10;;;;;;;6.15;3.65;;;21.80;99.90;;;;;;5072749;28;20475;-72
2022/06/24 12:24:37;;;;;;;8.23;4.40;;;21.80;99.90;;;;;;5075524;28;20071;-72
2022/06/24 12:27:04;;;;;;;7.43;3.35;;;21.80;99.90;;;;;;5076836;28;20045;-72
2022/06/24 12:29:35;;;;;;;6.70;3.75;;;21.70;99.90;;;;;;5076818;28;20119;-72
2022/06/24 12:32:03;;;;;;;7.82;3.60;;;21.70;99.90;;;;;;5076186;28;20045;-72
2022/06/24 12:34:36;;;;;;;9.40;4.00;;;21.70;99.90;;;;;;5075995;28;20058;-73
2022/06/24 12:37:05;;;;;;;5.30;2.78;;;21.90;99.90;;;;;;5074702;28;20051;-81
2022/06/24 12:39:34;;;;;;;6.28;3.25;;;21.90;99.90;;;;;;5079921;28;20045;-72
2022/06/24 12:42:00;;;;;;;6.85;3.40;;;22.00;99.90;;;;;;5072590;28;20098;-72
2022/06/24 12:44:40;;;;;;;5.22;2.78;;;22.00;99.90;;;;;;5075065;28;20070;-80
2022/06/24 12:52:40;;;;;;;6.65;3.83;;;22.60;99.90;;;;;;5076171;28;20407;-71
2022/06/24 12:55:09;;;;;;;7.18;4.95;;;22.70;99.90;;;;;;5076124;28;20044;-72
2022/06/24 12:57:36;;;;;;;8.45;5.05;;;22.70;99.90;;;;;;5075828;28;20444;-71
2022/06/24 13:00:07;;;;;;;9.25;5.88;;;22.20;99.90;;;;;;5076154;28;20045;-71